createdAt,value
2022-11-05T00:01:40.773Z,6.60
2022-11-05T00:04:30.739Z,6.40
2022-11-05T00:07:30.916Z,6.40
2022-11-05T00:10:07.028Z,6.30
2022-11-05T00:12:52.425Z,6.30
2022-11-05T00:15:37.794Z,6.30
2022-11-05T00:18:04.398Z,6.20
2022-11-05T00:20:31.041Z,6.20
2022-11-05T00:23:20.442Z,6.20
2022-11-05T00:25:54.719Z,6.20
2022-11-05T00:28:21.620Z,6.20
2022-11-05T00:30:48.548Z,6.20
2022-11-05T00:33:15.233Z,6.50
2022-11-05T00:35:41.817Z,6.20
2022-11-05T00:38:08.629Z,6.30
2022-11-05T00:40:35.790Z,6.20
2022-11-05T00:43:21.083Z,6.20
2022-11-05T00:45:47.695Z,6.20
2022-11-05T00:48:32.866Z,6.10
2022-11-05T00:50:59.469Z,6.10
2022-11-05T00:53:26.056Z,6.10
2022-11-05T00:55:52.669Z,6.20
2022-11-05T00:58:21.143Z,6.30
2022-11-05T01:00:56.209Z,6.30
2022-11-05T01:03:27.396Z,6.40
2022-11-05T01:05:56.976Z,6.40
2022-11-05T01:08:26.647Z,6.50
2022-11-05T01:10:55.973Z,6.50
2022-11-05T01:13:26.090Z,6.60
2022-11-05T01:15:53.428Z,6.60
2022-11-05T01:18:21.254Z,6.60
2022-11-05T01:20:48.158Z,6.70
2022-11-05T01:23:15.616Z,6.70
2022-11-05T01:25:43.583Z,6.70
2022-11-05T01:28:10.633Z,6.70
2022-11-05T01:30:37.557Z,6.70
2022-11-05T01:33:04.473Z,6.70
2022-11-05T01:35:31.101Z,6.70
2022-11-05T01:37:57.725Z,6.60
2022-11-05T01:40:25.315Z,6.60
2022-11-05T01:42:51.987Z,6.60
2022-11-05T01:45:27.291Z,6.50
2022-11-05T01:48:06.789Z,6.40
2022-11-05T01:50:53.354Z,6.40
2022-11-05T01:53:31.757Z,6.30
2022-11-05T01:56:11.619Z,6.30
2022-11-05T01:58:46.173Z,6.30
2022-11-05T02:01:13.023Z,6.30
2022-11-05T02:03:40.949Z,6.30
2022-11-05T02:06:09.453Z,6.20
2022-11-05T02:09:11.364Z,6.20
2022-11-05T02:11:38.049Z,6.20
2022-11-05T02:14:05.709Z,6.20
2022-11-05T02:16:44.069Z,6.20
2022-11-05T02:19:38.186Z,6.20
2022-11-05T02:22:28.989Z,6.10
2022-11-05T02:25:27.536Z,6.10
2022-11-05T02:28:18.965Z,6.10
2022-11-05T02:30:51.879Z,6.10
2022-11-05T02:33:32.634Z,6.10
2022-11-05T02:36:04.336Z,6.20
2022-11-05T02:39:00.149Z,6.20
2022-11-05T02:41:40.646Z,6.30
2022-11-05T02:44:22.734Z,6.30
2022-11-05T02:46:54.621Z,6.30
2022-11-05T02:49:26.810Z,6.30
2022-11-05T02:51:57.152Z,6.30
2022-11-05T02:54:40.358Z,6.30
2022-11-05T02:57:07.361Z,6.30
2022-11-05T02:59:33.957Z,6.30
2022-11-05T03:02:02.851Z,6.30
2022-11-05T03:04:30.898Z,6.30
2022-11-05T03:07:14.571Z,6.30
2022-11-05T03:09:59.166Z,6.30
2022-11-05T03:12:50.712Z,6.30
2022-11-05T03:15:40.794Z,6.30
2022-11-05T03:18:25.791Z,6.30
2022-11-05T03:21:25.361Z,6.30
2022-11-05T03:24:01.927Z,6.30
2022-11-05T03:26:37.844Z,6.30
2022-11-05T03:29:11.896Z,6.20
2022-11-05T03:31:40.848Z,6.20
2022-11-05T03:34:08.847Z,6.20
2022-11-05T03:36:44.277Z,6.10
2022-11-05T03:39:17.641Z,6.10
2022-11-05T03:41:49.149Z,6.10
2022-11-05T03:44:25.148Z,6.10
2022-11-05T03:46:53.251Z,6.10
2022-11-05T03:49:25.197Z,6.10
2022-11-05T03:52:06.932Z,6.00
2022-11-05T03:54:34.607Z,6.00
2022-11-05T03:57:07.360Z,5.90
2022-11-05T03:59:46.356Z,6.00
2022-11-05T04:02:15.402Z,6.00
2022-11-05T04:04:42.297Z,5.90
2022-11-05T04:07:28.812Z,6.00
2022-11-05T04:10:14.286Z,5.90
2022-11-05T04:12:59.601Z,5.90
2022-11-05T04:15:26.945Z,5.90
2022-11-05T04:17:53.876Z,5.90
2022-11-05T04:20:39.345Z,5.90
2022-11-05T04:23:25.582Z,5.90
2022-11-05T04:25:52.216Z,5.90
2022-11-05T04:28:18.988Z,5.90
2022-11-05T04:30:45.593Z,5.80
2022-11-05T04:33:16.662Z,5.80
2022-11-05T04:35:48.531Z,5.80
2022-11-05T04:38:20.035Z,5.80
2022-11-05T04:40:48.037Z,5.80
2022-11-05T04:43:17.265Z,5.80
2022-11-05T04:45:45.043Z,5.80
2022-11-05T04:48:11.741Z,5.80
2022-11-05T04:50:38.422Z,5.70
2022-11-05T04:53:05.020Z,5.70
2022-11-05T04:55:31.683Z,5.80
2022-11-05T04:57:58.354Z,5.70
2022-11-05T05:00:25.065Z,5.70
2022-11-05T05:02:51.798Z,5.70
2022-11-05T05:05:18.581Z,5.70
2022-11-05T05:07:45.587Z,5.60
2022-11-05T05:10:12.523Z,5.70
2022-11-05T05:12:39.123Z,5.60
2022-11-05T05:15:06.211Z,5.60
2022-11-05T05:17:32.833Z,5.60
2022-11-05T05:20:18.336Z,5.60
2022-11-05T05:22:51.973Z,5.60
2022-11-05T05:25:18.619Z,5.60
2022-11-05T05:27:45.226Z,5.60
2022-11-05T05:30:12.451Z,5.60
2022-11-05T05:32:39.019Z,5.60
2022-11-05T05:35:06.035Z,5.50
2022-11-05T05:37:32.666Z,5.50
2022-11-05T05:39:59.267Z,5.50
2022-11-05T05:42:25.912Z,5.50
2022-11-05T05:44:52.506Z,5.50
2022-11-05T05:47:19.134Z,5.50
2022-11-05T05:49:45.769Z,5.50
2022-11-05T05:52:12.525Z,5.50
2022-11-05T05:54:42.729Z,5.50
2022-11-05T05:57:10.432Z,5.40
2022-11-05T05:59:37.056Z,5.40
2022-11-05T06:02:03.800Z,5.40
2022-11-05T06:04:30.528Z,5.40
2022-11-05T06:06:57.125Z,5.30
2022-11-05T06:09:23.720Z,5.30
2022-11-05T06:11:50.307Z,5.30
2022-11-05T06:14:16.978Z,5.30
2022-11-05T06:16:43.652Z,5.30
2022-11-05T06:19:10.304Z,5.30
2022-11-05T06:21:36.900Z,5.30
2022-11-05T06:24:04.054Z,5.30
2022-11-05T06:26:31.051Z,5.30
2022-11-05T06:28:57.658Z,5.30
2022-11-05T06:31:24.389Z,5.30
2022-11-05T06:33:50.999Z,5.30
2022-11-05T06:36:19.431Z,5.30
2022-11-05T06:38:46.490Z,5.30
2022-11-05T06:41:13.387Z,5.30
2022-11-05T06:43:40.538Z,5.30
2022-11-05T06:46:07.791Z,5.30
2022-11-05T06:48:34.791Z,5.30
2022-11-05T06:51:01.786Z,5.40
2022-11-05T06:53:28.896Z,5.30
2022-11-05T06:55:55.513Z,5.40
2022-11-05T06:58:22.214Z,5.40
2022-11-05T07:00:49.097Z,5.50
2022-11-05T07:03:16.000Z,5.50
2022-11-05T07:05:46.230Z,5.50
2022-11-05T07:08:12.941Z,5.60
2022-11-05T07:10:39.646Z,5.60
2022-11-05T07:13:08.505Z,5.60
2022-11-05T07:15:36.592Z,5.60
2022-11-05T07:18:04.000Z,5.60
2022-11-05T07:20:33.965Z,5.60
2022-11-05T07:23:06.321Z,5.60
2022-11-05T07:25:34.036Z,5.70
2022-11-05T07:28:01.368Z,5.70
2022-11-05T07:30:29.010Z,5.70
2022-11-05T07:32:55.670Z,5.60
2022-11-05T07:35:22.739Z,5.70
2022-11-05T07:37:51.099Z,5.90
2022-11-05T07:40:21.879Z,6.60
2022-11-05T07:42:56.977Z,7.20
2022-11-05T07:45:25.163Z,7.80
2022-11-05T07:47:54.292Z,8.80
2022-11-05T07:50:23.356Z,9.20
2022-11-05T07:52:50.360Z,9.80
2022-11-05T07:55:18.227Z,10.20
2022-11-05T07:57:49.794Z,10.30
2022-11-05T08:00:20.203Z,10.80
2022-11-05T08:03:09.235Z,11.10
2022-11-05T08:05:38.815Z,11.00
2022-11-05T08:08:07.057Z,10.90
2022-11-05T08:10:34.685Z,10.50
2022-11-05T08:13:01.749Z,9.80
2022-11-05T08:15:28.420Z,9.30
2022-11-05T08:17:59.395Z,9.30
2022-11-05T08:20:26.379Z,9.90
2022-11-05T08:22:54.247Z,10.50
2022-11-05T08:25:20.890Z,11.10
2022-11-05T08:27:47.476Z,11.70
2022-11-05T08:30:14.360Z,12.30
2022-11-05T08:32:40.972Z,12.80
2022-11-05T08:35:07.778Z,13.00
2022-11-05T08:37:34.419Z,13.00
2022-11-05T08:40:01.112Z,13.00
2022-11-05T08:42:27.718Z,12.70
2022-11-05T08:44:54.330Z,12.10
2022-11-05T08:47:20.965Z,11.90
2022-11-05T08:49:47.589Z,11.30
2022-11-05T08:52:14.427Z,10.80
2022-11-05T08:54:41.008Z,10.20
2022-11-05T08:57:07.616Z,9.90
2022-11-05T08:59:34.277Z,9.60
2022-11-05T09:02:00.997Z,9.80
2022-11-05T09:04:27.688Z,10.00
2022-11-05T09:06:54.300Z,10.20
2022-11-05T09:09:20.875Z,10.30
2022-11-05T09:12:10.992Z,10.50
2022-11-05T09:14:34.020Z,10.70
2022-11-05T09:17:00.628Z,11.30
2022-11-05T09:19:27.230Z,11.60
2022-11-05T09:21:53.973Z,12.10
2022-11-05T09:24:20.536Z,12.40
2022-11-05T09:26:47.147Z,12.80
2022-11-05T09:29:14.668Z,13.00
2022-11-05T09:31:41.885Z,12.90
2022-11-05T09:34:08.471Z,13.00
2022-11-05T09:36:35.146Z,13.00
2022-11-05T09:39:01.798Z,12.80
2022-11-05T09:41:39.816Z,12.80
2022-11-05T09:44:15.795Z,13.10
2022-11-05T09:47:04.129Z,13.20
2022-11-05T09:49:42.362Z,13.00
2022-11-05T09:52:14.622Z,12.80
2022-11-05T09:54:41.312Z,12.60
2022-11-05T09:57:15.016Z,12.60
2022-11-05T09:59:44.704Z,12.50
2022-11-05T10:02:32.849Z,12.60
2022-11-05T10:05:09.167Z,12.70
2022-11-05T10:07:43.492Z,13.00
2022-11-05T10:10:39.375Z,12.90
2022-11-05T10:13:36.407Z,13.10
2022-11-05T10:16:25.713Z,13.00
2022-11-05T10:19:02.732Z,13.00
2022-11-05T10:21:59.395Z,13.30
2022-11-05T10:24:20.036Z,13.30
2022-11-05T10:26:52.639Z,13.60
2022-11-05T10:29:32.303Z,13.70
2022-11-05T10:32:01.620Z,13.90
2022-11-05T10:34:33.320Z,13.90
2022-11-05T10:37:00.357Z,14.40
2022-11-05T10:39:30.444Z,14.80
2022-11-05T10:42:09.215Z,14.70
2022-11-05T10:44:45.135Z,15.20
2022-11-05T10:47:30.584Z,14.90
2022-11-05T10:49:59.797Z,15.20
2022-11-05T10:52:38.230Z,15.70
2022-11-05T10:55:18.582Z,15.00
2022-11-05T10:57:49.344Z,14.80
2022-11-05T11:00:16.232Z,14.20
2022-11-05T11:02:46.885Z,13.80
2022-11-05T11:05:32.222Z,13.60
2022-11-05T11:07:58.847Z,13.10
2022-11-05T11:10:26.365Z,13.00
2022-11-05T11:12:53.989Z,13.00
2022-11-05T11:15:20.543Z,12.90
2022-11-05T11:17:47.620Z,12.80
2022-11-05T11:20:25.323Z,12.80
2022-11-05T11:23:12.765Z,12.80
2022-11-05T11:25:48.005Z,12.90
2022-11-05T11:28:19.580Z,12.90
2022-11-05T11:31:11.313Z,12.80
2022-11-05T11:33:40.154Z,12.90
2022-11-05T11:36:09.036Z,12.90
2022-11-05T11:38:37.081Z,13.00
2022-11-05T11:41:19.089Z,13.20
2022-11-05T11:43:46.118Z,13.00
2022-11-05T11:46:21.077Z,12.90
2022-11-05T11:48:49.281Z,12.80
2022-11-05T11:51:54.664Z,12.80
2022-11-05T11:54:29.007Z,13.20
2022-11-05T11:56:55.871Z,12.90
2022-11-05T11:59:46.856Z,12.80
2022-11-05T12:02:17.826Z,12.80
2022-11-05T12:04:50.206Z,12.70
2022-11-05T12:07:30.884Z,12.60
2022-11-05T12:10:22.462Z,12.70
2022-11-05T12:13:20.423Z,12.60
2022-11-05T12:15:55.026Z,12.60
2022-11-05T12:18:48.082Z,12.60
2022-11-05T12:21:52.081Z,12.50
2022-11-05T12:24:34.535Z,12.60
2022-11-05T12:27:33.946Z,12.50
2022-11-05T12:30:14.179Z,12.40
2022-11-05T12:33:05.602Z,12.20
2022-11-05T12:35:44.143Z,12.20
2022-11-05T12:38:21.940Z,12.00
2022-11-05T12:40:51.645Z,11.90
2022-11-05T12:43:52.000Z,11.90
2022-11-05T12:46:56.145Z,11.80
2022-11-05T12:49:41.460Z,11.80
2022-11-05T12:52:20.080Z,11.80
2022-11-05T12:54:58.984Z,11.90
2022-11-05T12:57:28.518Z,11.90
2022-11-05T13:00:27.748Z,12.00
2022-11-05T13:03:22.264Z,11.90
2022-11-05T13:05:59.135Z,12.00
2022-11-05T13:09:04.240Z,12.10
2022-11-05T13:11:42.095Z,12.10
2022-11-05T13:14:11.868Z,12.00
2022-11-05T13:16:52.450Z,12.00
2022-11-05T13:19:24.503Z,12.00
2022-11-05T13:22:09.605Z,11.90
2022-11-05T13:24:45.663Z,11.90
2022-11-05T13:27:18.423Z,12.00
2022-11-05T13:29:58.317Z,11.70
2022-11-05T13:32:24.860Z,11.90
2022-11-05T13:34:55.046Z,11.90
2022-11-05T13:37:53.255Z,11.90
2022-11-05T13:40:25.522Z,11.90
2022-11-05T13:43:21.244Z,11.80
2022-11-05T13:46:29.476Z,11.90
2022-11-05T13:49:20.952Z,11.90
2022-11-05T13:52:15.592Z,11.80
2022-11-05T13:54:55.645Z,11.80
2022-11-05T13:57:59.955Z,11.90
2022-11-05T14:00:29.088Z,11.70
2022-11-05T14:02:55.673Z,11.80
2022-11-05T14:05:33.132Z,11.70
2022-11-05T14:08:02.347Z,11.60
2022-11-05T14:10:41.665Z,11.60
2022-11-05T14:13:35.809Z,11.70
2022-11-05T14:16:06.923Z,11.70
2022-11-05T14:18:49.261Z,11.60
2022-11-05T14:21:32.599Z,11.60
2022-11-05T14:24:22.593Z,11.60
2022-11-05T14:27:01.612Z,11.50
2022-11-05T14:29:48.608Z,11.50
2022-11-05T14:32:20.796Z,11.40
2022-11-05T14:35:15.120Z,11.40
2022-11-05T14:37:52.144Z,11.40
2022-11-05T14:40:21.736Z,11.40
2022-11-05T14:43:04.080Z,11.30
2022-11-05T14:45:35.109Z,11.20
2022-11-05T14:48:07.696Z,11.20
2022-11-05T14:50:40.530Z,11.20
2022-11-05T14:53:31.281Z,11.10
2022-11-05T14:56:11.524Z,11.10
2022-11-05T14:58:43.190Z,11.00
2022-11-05T15:01:15.654Z,11.00
2022-11-05T15:03:46.417Z,11.00
2022-11-05T15:06:21.908Z,11.00
2022-11-05T15:08:48.444Z,11.00
2022-11-05T15:11:32.771Z,10.90
2022-11-05T15:14:07.488Z,10.90
2022-11-05T15:16:40.347Z,10.80
2022-11-05T15:19:37.050Z,10.80
2022-11-05T15:22:12.454Z,10.80
2022-11-05T15:24:42.691Z,10.70
2022-11-05T15:27:36.816Z,10.70
2022-11-05T15:30:18.316Z,10.60
2022-11-05T15:32:45.280Z,10.60
2022-11-05T15:35:39.355Z,10.60
2022-11-05T15:38:29.142Z,10.60
2022-11-05T15:41:02.145Z,10.60
2022-11-05T15:43:28.780Z,10.50
2022-11-05T15:46:05.798Z,10.50
2022-11-05T15:48:33.449Z,10.50
2022-11-05T15:51:00.626Z,10.50
2022-11-05T15:54:15.669Z,10.50
2022-11-05T15:56:47.937Z,10.50
2022-11-05T15:59:20.262Z,10.30
2022-11-05T16:01:57.363Z,10.20
2022-11-05T16:04:27.664Z,10.20
2022-11-05T16:07:07.241Z,10.20
2022-11-05T16:09:37.042Z,10.20
2022-11-05T16:12:12.961Z,10.10
2022-11-05T16:14:39.965Z,10.10
2022-11-05T16:17:21.519Z,10.10
2022-11-05T16:19:49.465Z,10.10
2022-11-05T16:22:16.207Z,10.10
2022-11-05T16:24:44.107Z,10.10
2022-11-05T16:27:19.801Z,10.00
2022-11-05T16:29:55.764Z,10.00
2022-11-05T16:32:31.708Z,10.00
2022-11-05T16:35:04.221Z,9.90
2022-11-05T16:37:37.620Z,9.90
2022-11-05T16:40:13.937Z,9.90
2022-11-05T16:42:41.103Z,9.80
2022-11-05T16:45:13.377Z,9.80
2022-11-05T16:47:40.497Z,9.80
2022-11-05T16:50:30.272Z,9.90
2022-11-05T16:52:56.885Z,9.80
2022-11-05T16:55:23.462Z,9.70
2022-11-05T16:57:53.023Z,9.70
2022-11-05T17:00:21.069Z,9.60
2022-11-05T17:02:48.391Z,9.60
2022-11-05T17:05:27.205Z,9.60
2022-11-05T17:07:54.919Z,9.60
2022-11-05T17:10:22.901Z,9.60
2022-11-05T17:12:49.982Z,9.60
2022-11-05T17:15:33.512Z,9.60
2022-11-05T17:18:00.104Z,9.60
2022-11-05T17:20:41.457Z,9.60
2022-11-05T17:23:14.297Z,9.60
2022-11-05T17:25:43.230Z,9.60
2022-11-05T17:28:10.820Z,9.70
2022-11-05T17:30:41.377Z,9.70
2022-11-05T17:33:09.525Z,9.60
2022-11-05T17:35:39.244Z,9.70
2022-11-05T17:38:05.856Z,9.70
2022-11-05T17:40:34.587Z,9.70
2022-11-05T17:43:01.498Z,9.70
2022-11-05T17:45:28.112Z,9.70
2022-11-05T17:47:55.165Z,9.60
2022-11-05T17:50:21.788Z,9.70
2022-11-05T17:52:48.403Z,9.70
2022-11-05T17:55:18.170Z,9.60
2022-11-05T17:57:47.050Z,9.60
2022-11-05T18:00:19.240Z,9.70
2022-11-05T18:02:48.288Z,9.60
2022-11-05T18:05:16.164Z,9.60
2022-11-05T18:07:43.413Z,9.70
2022-11-05T18:10:10.136Z,9.70
2022-11-05T18:12:37.573Z,9.70
2022-11-05T18:15:04.885Z,9.80
2022-11-05T18:17:31.551Z,9.80
2022-11-05T18:19:58.308Z,9.80
2022-11-05T18:22:26.523Z,9.90
2022-11-05T18:24:54.664Z,9.80
2022-11-05T18:27:24.458Z,9.80
2022-11-05T18:29:51.166Z,9.80
2022-11-05T18:32:17.836Z,9.80
2022-11-05T18:34:44.651Z,9.80
2022-11-05T18:37:14.595Z,9.70
2022-11-05T18:39:41.253Z,9.70
2022-11-05T18:42:07.927Z,9.80
2022-11-05T18:44:38.944Z,9.80
2022-11-05T18:47:06.825Z,9.80
2022-11-05T18:49:33.756Z,9.90
2022-11-05T18:52:00.556Z,9.80
2022-11-05T18:54:27.248Z,9.90
2022-11-05T18:56:53.993Z,9.80
2022-11-05T18:59:38.991Z,9.90
2022-11-05T19:02:07.575Z,9.80
2022-11-05T19:04:37.658Z,9.80
2022-11-05T19:07:05.876Z,9.90
2022-11-05T19:09:37.451Z,9.80
2022-11-05T19:12:05.317Z,9.80
2022-11-05T19:14:32.287Z,9.80
2022-11-05T19:17:00.388Z,9.90
2022-11-05T19:19:27.234Z,9.80
2022-11-05T19:21:54.219Z,9.80
2022-11-05T19:24:20.894Z,9.80
2022-11-05T19:26:47.979Z,9.90
2022-11-05T19:29:15.383Z,9.90
2022-11-05T19:31:42.082Z,9.90
2022-11-05T19:34:09.076Z,9.80
2022-11-05T19:36:35.668Z,9.80
2022-11-05T19:39:06.326Z,9.80
2022-11-05T19:41:33.093Z,9.80
2022-11-05T19:44:01.461Z,9.80
2022-11-05T19:46:29.158Z,9.80
2022-11-05T19:48:56.180Z,9.80
2022-11-05T19:51:28.208Z,9.90
2022-11-05T19:53:55.851Z,9.90
2022-11-05T19:56:25.977Z,9.90
2022-11-05T19:58:53.817Z,9.90
2022-11-05T20:01:22.736Z,9.90
2022-11-05T20:03:49.902Z,10.00
2022-11-05T20:06:22.264Z,9.90
2022-11-05T20:11:37.672Z,10.00
2022-11-05T20:14:04.910Z,10.00
2022-11-05T20:16:37.813Z,10.00
2022-11-05T20:19:09.613Z,10.10
2022-11-05T20:21:36.539Z,10.00
2022-11-05T20:24:03.487Z,10.00
2022-11-05T20:26:30.316Z,10.00
2022-11-05T20:28:56.948Z,10.00
2022-11-05T20:31:23.655Z,10.10
2022-11-05T20:33:51.237Z,10.10
2022-11-05T20:36:20.372Z,10.10
2022-11-05T20:38:48.860Z,10.10
2022-11-05T20:41:15.652Z,10.00
2022-11-05T20:43:42.724Z,10.00
2022-11-05T20:46:13.611Z,10.00
2022-11-05T20:48:40.804Z,10.00
2022-11-05T20:51:13.327Z,10.00
2022-11-05T20:53:40.591Z,10.00
2022-11-05T20:56:09.246Z,10.00
2022-11-05T20:58:37.108Z,10.00
2022-11-05T21:01:05.394Z,10.00
2022-11-05T21:03:32.262Z,10.00
2022-11-05T21:06:03.957Z,10.00
2022-11-05T21:08:30.617Z,10.00
2022-11-05T21:10:57.592Z,10.00
2022-11-05T21:13:25.765Z,10.00
2022-11-05T21:15:54.525Z,10.00
2022-11-05T21:18:25.761Z,10.00
2022-11-05T21:20:53.101Z,10.10
2022-11-05T21:23:19.805Z,10.00
2022-11-05T21:25:47.199Z,10.00
2022-11-05T21:28:15.165Z,10.00
2022-11-05T21:30:45.458Z,10.00
2022-11-05T21:33:13.694Z,10.00
2022-11-05T21:35:43.737Z,10.00
2022-11-05T21:38:12.025Z,10.00
2022-11-05T21:40:39.343Z,10.00
2022-11-05T21:43:06.420Z,10.10
2022-11-05T21:45:33.287Z,10.10
2022-11-05T21:47:59.954Z,10.10
2022-11-05T21:50:45.219Z,10.10
2022-11-05T21:53:34.507Z,10.10
2022-11-05T21:56:33.598Z,10.00
2022-11-05T21:59:18.993Z,10.10
2022-11-05T22:01:45.737Z,10.00
2022-11-05T22:04:12.514Z,10.00
2022-11-05T22:06:39.088Z,10.00
2022-11-05T22:09:06.260Z,10.00
2022-11-05T22:11:38.961Z,9.90
2022-11-05T22:14:05.644Z,9.90
2022-11-05T22:16:32.251Z,9.90
2022-11-05T22:18:59.440Z,9.90
2022-11-05T22:21:26.034Z,9.80
2022-11-05T22:23:53.267Z,9.80
2022-11-05T22:26:19.919Z,9.80
2022-11-05T22:28:47.856Z,9.80
2022-11-05T22:31:15.891Z,9.70
2022-11-05T22:33:43.004Z,9.70
2022-11-05T22:36:10.261Z,9.70
2022-11-05T22:38:36.967Z,9.70
2022-11-05T22:41:11.997Z,9.70
2022-11-05T22:43:38.872Z,9.70
2022-11-05T22:46:07.325Z,9.80
2022-11-05T22:48:35.657Z,9.80
2022-11-05T22:51:04.126Z,9.70
2022-11-05T22:53:30.947Z,9.70
2022-11-05T22:55:58.091Z,9.80
2022-11-05T22:58:24.727Z,9.70
2022-11-05T23:00:51.360Z,9.70
2022-11-05T23:03:18.046Z,9.70
2022-11-05T23:05:44.644Z,9.70
2022-11-05T23:08:29.933Z,9.70
2022-11-05T23:11:15.900Z,9.70
2022-11-05T23:13:42.475Z,9.70
2022-11-05T23:16:29.348Z,9.70
2022-11-05T23:19:14.613Z,9.70
2022-11-05T23:22:00.101Z,9.70
2022-11-05T23:24:26.673Z,9.80
2022-11-05T23:26:53.862Z,9.80
2022-11-05T23:29:22.782Z,9.80
2022-11-05T23:32:09.277Z,9.80
2022-11-05T23:34:35.983Z,9.80
2022-11-05T23:37:21.719Z,9.70
2022-11-05T23:39:48.308Z,9.80
2022-11-05T23:42:33.444Z,9.70
2022-11-05T23:45:18.821Z,9.70
2022-11-05T23:48:04.248Z,9.70
2022-11-05T23:50:35.630Z,9.80
2022-11-05T23:53:06.469Z,9.80
2022-11-05T23:55:33.040Z,9.70
2022-11-05T23:57:59.641Z,9.70
